Yverdon-les-Bains, Switzerland

5:26 AM CET on December 10, 2016 (GMT +0100)
Place Bel-Air | | Change Station

Elev 1433 ft 46.78 °N, 6.64 °E | Updated 6 minutes ago

Clear
Clear
34.7 °F
Feels Like 35 °F
N
1.2
Wind Variable Wind from WSW
Gusts 4.3 mph

Today
High -- | Low -- °F
--% Chance of Precip.
Yesterday
High -- | Low -- °F
Precip. -- in
Pressure 30.42 in
Visibility 0.2 miles
Clouds Mostly Cloudy 200 ft
Windchill 35 °F
Dew Point 33 °F
Humidity 94%
Rainfall 0.00 in
Snow Depth Not available.
8:07 AM 4:45 PM
Waxing Gibbous, 80% visible
METAR LSMP 100350Z AUTO 16003KT 0250NDV R05/0350N R23/0350N FG BKN002 M01/M02 Q1030 RMK
Pressure 30.42 in
Visibility 0.2 miles
Clouds Mostly Cloudy 200 ft
Windchill 35 °F
Dew Point 33 °F
Humidity 94%
Rainfall 0.00 in
Snow Depth Not available.
8:07 AM 4:45 PM
Waxing Gibbous, 80% visible
METAR LSMP 100350Z AUTO 16003KT 0250NDV R05/0350N R23/0350N FG BKN002 M01/M02 Q1030 RMK

10-Day Weather Forecast

×

Almanac

Astronomy

Dec. 10, 2016 Rise Set
Actual Time
Civil Twilight
Nautical Twilight
Astronomical Twilight
Moon
Length of Visible Light
Length of Day
Tomorrow will be .
, % of the Moon is Illuminated

Today's Extremes

Country Highs Country Lows

Community

WunderPhotos

Upload Photos

1,956,529 photos uploaded!

WunderBlog® & News

Nearby

Air Quality

  Air Quality AQ Index Pollutant
Not available.

Snow Depth

Station Depth Elevation

Earthquake Activity

City Distance Mag. Time & Date
Minimum magnitude displayed is 2.5.

Coastal Water Temperatures

Place Temperature

Stations

Nearby Weather Stations

Station Location Temp. Windchill Dew Point Humidity Wind Precip. Elev Updated Type